createdAt,value
2023-05-21T00:01:30.335Z,0.50
2023-05-21T00:03:58.166Z,0.50
2023-05-21T00:06:26.035Z,0.77
2023-05-21T00:08:53.589Z,0.70
2023-05-21T00:11:20.820Z,0.63
2023-05-21T00:13:48.177Z,0.82
2023-05-21T00:16:16.274Z,0.60
2023-05-21T00:18:45.397Z,1.15
2023-05-21T00:21:12.887Z,0.63
2023-05-21T00:23:41.787Z,0.73
2023-05-21T00:26:09.452Z,0.90
2023-05-21T00:28:36.770Z,0.60
2023-05-21T00:31:04.011Z,0.55
2023-05-21T00:33:31.433Z,0.60
2023-05-21T00:36:02.029Z,0.73
2023-05-21T00:38:29.426Z,0.80
2023-05-21T00:40:56.680Z,0.70
2023-05-21T00:43:26.794Z,0.80
2023-05-21T00:45:56.816Z,1.45
2023-05-21T00:48:24.783Z,0.80
2023-05-21T00:50:52.418Z,0.88
2023-05-21T00:53:20.331Z,0.63
2023-05-21T00:55:48.794Z,0.60
2023-05-21T00:58:18.409Z,0.95
2023-05-21T01:00:46.382Z,0.80
2023-05-21T01:03:15.224Z,0.90
2023-05-21T01:05:45.729Z,1.10
2023-05-21T01:08:13.484Z,1.25
2023-05-21T01:10:41.098Z,0.80
2023-05-21T01:13:09.055Z,1.13
2023-05-21T01:15:38.874Z,1.00
2023-05-21T01:18:06.518Z,0.70
2023-05-21T01:20:33.984Z,1.02
2023-05-21T01:23:01.926Z,1.10
2023-05-21T01:25:29.293Z,1.00
2023-05-21T01:27:56.631Z,1.00
2023-05-21T01:30:25.265Z,1.75
2023-05-21T01:32:55.112Z,1.35
2023-05-21T01:35:27.657Z,1.10
2023-05-21T01:38:13.819Z,1.17
2023-05-21T01:40:52.511Z,1.30
2023-05-21T01:43:21.372Z,1.05
2023-05-21T01:45:53.830Z,1.10
2023-05-21T01:48:23.200Z,1.20
2023-05-21T01:50:51.840Z,1.27
2023-05-21T01:53:19.316Z,1.30
2023-05-21T01:55:47.426Z,1.40
2023-05-21T01:58:17.429Z,1.92
2023-05-21T02:00:45.924Z,1.70
2023-05-21T02:03:16.956Z,1.95
2023-05-21T02:05:44.644Z,1.75
2023-05-21T02:08:13.817Z,1.75
2023-05-21T02:10:41.394Z,1.25
2023-05-21T02:13:08.689Z,1.65
2023-05-21T02:15:36.150Z,1.73
2023-05-21T02:18:04.399Z,1.80
2023-05-21T02:20:32.120Z,1.60
2023-05-21T02:22:59.465Z,2.55
2023-05-21T02:25:28.299Z,1.50
2023-05-21T02:27:57.123Z,1.80
2023-05-21T02:30:24.440Z,1.73
2023-05-21T02:32:51.742Z,1.50
2023-05-21T02:35:19.153Z,1.98
2023-05-21T02:37:46.416Z,2.08
2023-05-21T02:40:14.062Z,1.85
2023-05-21T02:42:41.917Z,2.00
2023-05-21T02:45:10.775Z,2.78
2023-05-21T02:47:39.257Z,2.58
2023-05-21T02:50:08.454Z,2.45
2023-05-21T02:52:36.060Z,2.65
2023-05-21T02:55:03.382Z,2.60
2023-05-21T02:57:30.878Z,2.63
2023-05-21T02:59:58.015Z,2.67
2023-05-21T03:02:25.186Z,2.58
2023-05-21T03:04:52.340Z,2.55
2023-05-21T03:07:20.291Z,2.55
2023-05-21T03:09:47.887Z,3.05
2023-05-21T03:12:14.995Z,2.38
2023-05-21T03:14:44.397Z,3.38
2023-05-21T03:17:14.246Z,2.40
2023-05-21T03:19:42.562Z,3.28
2023-05-21T03:22:10.371Z,2.47
2023-05-21T03:24:38.950Z,3.38
2023-05-21T03:27:07.537Z,3.25
2023-05-21T03:29:35.190Z,2.65
2023-05-21T03:32:02.952Z,2.80
2023-05-21T03:34:30.554Z,2.78
2023-05-21T03:36:57.897Z,2.97
2023-05-21T03:39:24.929Z,3.08
2023-05-21T03:41:52.028Z,3.03
2023-05-21T03:44:19.068Z,3.08
2023-05-21T03:46:46.374Z,2.45
2023-05-21T03:49:14.564Z,2.90
2023-05-21T03:51:41.652Z,3.20
2023-05-21T03:54:08.714Z,3.22
2023-05-21T03:56:36.082Z,2.70
2023-05-21T03:59:03.201Z,3.42
2023-05-21T04:01:31.034Z,3.65
2023-05-21T04:03:58.353Z,2.95
2023-05-21T04:06:25.576Z,2.78
2023-05-21T04:08:52.782Z,2.83
2023-05-21T04:11:19.907Z,2.33
2023-05-21T04:13:48.421Z,3.15
2023-05-21T04:16:19.615Z,3.25
2023-05-21T04:18:47.519Z,3.25
2023-05-21T04:21:14.798Z,4.05
2023-05-21T04:23:42.037Z,3.08
2023-05-21T04:26:09.230Z,3.25
2023-05-21T04:28:36.751Z,2.65
2023-05-21T04:31:03.888Z,3.35
2023-05-21T04:33:30.996Z,3.00
2023-05-21T04:35:58.142Z,2.85
2023-05-21T04:38:26.239Z,2.90
2023-05-21T04:40:53.411Z,3.30
2023-05-21T04:43:26.646Z,3.90
2023-05-21T04:45:55.255Z,3.00
2023-05-21T04:48:27.338Z,3.45
2023-05-21T04:50:54.562Z,3.38
2023-05-21T04:53:22.452Z,3.60
2023-05-21T04:55:49.741Z,2.83
2023-05-21T04:58:18.367Z,2.72
2023-05-21T05:00:47.348Z,2.58
2023-05-21T05:03:14.887Z,3.67
2023-05-21T05:05:42.410Z,3.53
2023-05-21T05:08:09.463Z,3.33
2023-05-21T05:10:36.745Z,2.75
2023-05-21T05:13:04.116Z,3.75
2023-05-21T05:15:31.512Z,2.75
2023-05-21T05:17:58.705Z,4.88
2023-05-21T05:20:25.886Z,2.88
2023-05-21T05:22:53.110Z,3.05
2023-05-21T05:25:20.339Z,3.67
2023-05-21T05:27:47.621Z,3.10
2023-05-21T05:30:14.716Z,3.45
2023-05-21T05:32:41.836Z,3.30
2023-05-21T05:35:10.075Z,3.08
2023-05-21T05:37:37.116Z,3.78
2023-05-21T05:40:06.126Z,3.28
2023-05-21T05:42:33.263Z,2.53
2023-05-21T05:45:00.324Z,3.03
2023-05-21T05:47:27.463Z,2.70
2023-05-21T05:49:54.563Z,2.47
2023-05-21T05:52:21.634Z,2.88
2023-05-21T05:54:48.886Z,2.75
2023-05-21T05:57:16.345Z,3.30
2023-05-21T05:59:43.467Z,3.65
2023-05-21T06:02:10.755Z,3.08
2023-05-21T06:04:37.808Z,3.22
2023-05-21T06:07:05.247Z,3.58
2023-05-21T06:09:32.391Z,2.55
2023-05-21T06:12:00.723Z,3.08
2023-05-21T06:14:28.049Z,3.10
2023-05-21T06:16:55.123Z,2.88
2023-05-21T06:19:22.232Z,2.47
2023-05-21T06:21:49.466Z,2.90
2023-05-21T06:24:16.834Z,2.95
2023-05-21T06:26:43.949Z,2.90
2023-05-21T06:29:11.193Z,2.65
2023-05-21T06:31:38.762Z,3.28
2023-05-21T06:34:05.897Z,2.47
2023-05-21T06:36:33.063Z,2.85
2023-05-21T06:39:00.252Z,2.95
2023-05-21T06:41:28.705Z,2.78
2023-05-21T06:43:56.144Z,2.78
2023-05-21T06:46:23.437Z,2.45
2023-05-21T06:48:50.658Z,2.85
2023-05-21T06:51:17.823Z,2.97
2023-05-21T06:53:44.950Z,2.95
2023-05-21T06:56:13.357Z,2.88
2023-05-21T06:58:40.429Z,3.28
2023-05-21T07:01:07.950Z,3.00
2023-05-21T07:03:37.000Z,3.33
2023-05-21T07:06:04.436Z,3.60
2023-05-21T07:08:31.743Z,3.03
2023-05-21T07:10:59.062Z,3.13
2023-05-21T07:13:26.331Z,2.70
2023-05-21T07:15:53.508Z,2.97
2023-05-21T07:18:25.241Z,2.80
2023-05-21T07:20:52.501Z,3.13
2023-05-21T07:23:19.926Z,2.25
2023-05-21T07:25:47.502Z,2.45
2023-05-21T07:28:15.456Z,2.42
2023-05-21T07:30:42.625Z,2.42
2023-05-21T07:33:09.954Z,2.35
2023-05-21T07:35:37.418Z,2.20
2023-05-21T07:38:05.837Z,1.65
2023-05-21T07:40:33.162Z,1.58
2023-05-21T07:43:00.308Z,1.50
2023-05-21T07:45:27.544Z,1.35
2023-05-21T07:47:55.065Z,1.77
2023-05-21T07:50:22.790Z,1.60
2023-05-21T07:52:50.009Z,1.20
2023-05-21T07:55:20.188Z,1.67
2023-05-21T07:57:47.600Z,1.48
2023-05-21T08:00:15.696Z,1.52
2023-05-21T08:02:42.904Z,1.70
2023-05-21T08:05:10.882Z,1.35
2023-05-21T08:07:39.070Z,1.15
2023-05-21T08:10:07.389Z,1.30
2023-05-21T08:12:34.457Z,1.00
2023-05-21T08:15:01.622Z,1.27
2023-05-21T08:17:28.998Z,1.30
2023-05-21T08:19:56.150Z,0.90
2023-05-21T08:22:23.316Z,0.98
2023-05-21T08:24:50.461Z,1.08
2023-05-21T08:27:17.729Z,1.02
2023-05-21T08:29:44.979Z,0.90
2023-05-21T08:32:12.155Z,0.95
2023-05-21T08:34:39.438Z,0.70
2023-05-21T08:37:06.594Z,0.90
2023-05-21T08:39:33.672Z,0.90
2023-05-21T08:42:22.576Z,0.80
2023-05-21T08:45:00.376Z,0.70
2023-05-21T08:47:31.165Z,0.70
2023-05-21T08:50:00.833Z,0.73
2023-05-21T08:52:28.056Z,0.70
2023-05-21T08:54:57.168Z,0.88
2023-05-21T08:57:27.284Z,0.70
2023-05-21T08:59:55.078Z,0.80
2023-05-21T09:02:22.543Z,0.90
2023-05-21T09:04:50.972Z,0.82
2023-05-21T09:07:18.992Z,0.80
2023-05-21T09:09:57.829Z,0.88
2023-05-21T09:12:26.209Z,0.55
2023-05-21T09:14:53.754Z,0.70
2023-05-21T09:17:27.693Z,0.70
2023-05-21T09:20:12.878Z,0.70
2023-05-21T09:22:43.164Z,0.82
2023-05-21T09:25:12.342Z,0.73
2023-05-21T09:27:40.452Z,0.75
2023-05-21T09:30:14.082Z,0.60
2023-05-21T09:32:42.385Z,0.80
2023-05-21T09:35:11.730Z,0.80
2023-05-21T09:37:46.477Z,0.60
2023-05-21T09:40:15.861Z,0.50
2023-05-21T09:42:46.552Z,0.70
2023-05-21T09:45:19.323Z,0.70
2023-05-21T09:50:18.069Z,0.80
2023-05-21T09:52:45.888Z,0.88
2023-05-21T09:55:14.196Z,0.70
2023-05-21T09:57:43.916Z,0.70
2023-05-21T10:00:18.581Z,0.70
2023-05-21T10:02:48.391Z,0.75
2023-05-21T10:05:17.216Z,1.00
2023-05-21T10:07:50.960Z,1.00
2023-05-21T10:10:21.976Z,0.80
2023-05-21T10:12:55.845Z,0.88
2023-05-21T10:15:25.929Z,1.05
2023-05-21T10:17:54.050Z,1.10
2023-05-21T10:20:23.022Z,0.88
2023-05-21T10:22:51.311Z,0.70
2023-05-21T10:25:19.527Z,0.80
2023-05-21T10:27:47.547Z,0.85
2023-05-21T10:30:15.637Z,0.73
2023-05-21T10:32:43.629Z,1.08
2023-05-21T10:35:12.184Z,0.90
2023-05-21T10:37:40.806Z,1.10
2023-05-21T10:40:08.839Z,0.85
2023-05-21T10:42:36.404Z,1.00
2023-05-21T10:45:07.345Z,1.35
2023-05-21T10:47:47.293Z,1.10
2023-05-21T10:50:17.088Z,1.17
2023-05-21T10:52:53.212Z,1.15
2023-05-21T10:55:37.405Z,1.20
2023-05-21T10:58:30.300Z,1.58
2023-05-21T11:00:58.083Z,0.90
2023-05-21T11:03:26.097Z,1.00
2023-05-21T11:05:55.901Z,1.20
2023-05-21T11:08:39.889Z,1.20
2023-05-21T11:11:07.225Z,1.63
2023-05-21T11:13:49.367Z,1.00
2023-05-21T11:16:17.952Z,1.40
2023-05-21T11:18:46.732Z,1.00
2023-05-21T11:21:17.347Z,1.20
2023-05-21T11:23:54.674Z,1.30
2023-05-21T11:26:26.428Z,1.45
2023-05-21T11:29:11.429Z,1.10
2023-05-21T11:31:39.163Z,0.70
2023-05-21T11:34:33.782Z,1.20
2023-05-21T11:37:18.681Z,1.50
2023-05-21T11:39:46.264Z,1.20
2023-05-21T11:42:14.030Z,0.90
2023-05-21T11:44:43.524Z,0.80
2023-05-21T11:47:13.478Z,1.10
2023-05-21T11:49:41.089Z,1.17
2023-05-21T11:52:10.134Z,1.30
2023-05-21T11:54:44.314Z,1.00
2023-05-21T11:57:11.689Z,0.90
2023-05-21T11:59:39.307Z,0.90
2023-05-21T12:02:06.569Z,0.82
2023-05-21T12:04:38.325Z,0.90
2023-05-21T12:07:08.754Z,1.17
2023-05-21T12:09:44.900Z,2.22
2023-05-21T12:12:15.259Z,0.77
2023-05-21T12:14:54.502Z,0.80
2023-05-21T12:17:24.386Z,1.10
2023-05-21T12:19:54.205Z,1.08
2023-05-21T12:22:22.146Z,0.90
2023-05-21T12:24:49.329Z,1.10
2023-05-21T12:27:17.305Z,0.80
2023-05-21T12:29:47.451Z,0.98
2023-05-21T12:32:15.302Z,1.27
2023-05-21T12:34:46.244Z,0.98
2023-05-21T12:37:17.405Z,0.80
2023-05-21T12:39:45.989Z,0.90
2023-05-21T12:42:14.249Z,1.00
2023-05-21T12:44:45.011Z,1.20
2023-05-21T12:47:12.968Z,0.90
2023-05-21T12:49:42.638Z,0.77
2023-05-21T12:52:11.741Z,0.90
2023-05-21T12:54:41.133Z,1.00
2023-05-21T12:57:13.982Z,0.93
2023-05-21T12:59:51.345Z,0.90
2023-05-21T13:02:30.789Z,1.23
2023-05-21T13:05:04.339Z,0.77
2023-05-21T13:07:32.945Z,0.80
2023-05-21T13:10:01.488Z,1.10
2023-05-21T13:12:32.354Z,1.05
2023-05-21T13:15:02.552Z,0.90
2023-05-21T13:17:30.536Z,0.98
2023-05-21T13:20:07.877Z,0.70
2023-05-21T13:22:39.393Z,0.80
2023-05-21T13:25:09.305Z,0.80
2023-05-21T13:27:36.516Z,0.70
2023-05-21T13:30:05.941Z,0.85
2023-05-21T13:32:33.295Z,0.82
2023-05-21T13:35:00.779Z,1.10
2023-05-21T13:37:28.149Z,0.80
2023-05-21T13:39:55.492Z,0.80
2023-05-21T13:42:23.101Z,1.08
2023-05-21T13:44:51.033Z,1.00
2023-05-21T13:47:18.736Z,1.10
2023-05-21T13:49:46.078Z,1.10
2023-05-21T13:52:13.415Z,1.10
2023-05-21T13:54:41.767Z,1.13
2023-05-21T13:57:09.174Z,1.10
2023-05-21T13:59:36.526Z,0.90
2023-05-21T14:02:04.427Z,0.95
2023-05-21T14:04:31.721Z,1.05
2023-05-21T14:06:59.162Z,1.30
2023-05-21T14:09:27.633Z,0.90
2023-05-21T14:11:56.533Z,1.00
2023-05-21T14:14:24.383Z,1.65
2023-05-21T14:16:52.552Z,0.98
2023-05-21T14:19:20.291Z,0.90
2023-05-21T14:21:47.733Z,0.90
2023-05-21T14:24:15.024Z,1.00
2023-05-21T14:26:42.467Z,1.10
2023-05-21T14:29:10.131Z,0.93
2023-05-21T14:31:38.496Z,1.20
2023-05-21T14:34:07.690Z,0.90
2023-05-21T14:36:36.807Z,1.10
2023-05-21T14:39:04.594Z,0.80
2023-05-21T14:41:31.973Z,0.68
2023-05-21T14:43:59.303Z,1.20
2023-05-21T14:46:26.960Z,1.00
2023-05-21T14:48:55.906Z,0.70
2023-05-21T14:51:23.277Z,0.95
2023-05-21T14:53:51.028Z,1.10
2023-05-21T14:56:22.185Z,0.93
2023-05-21T14:58:49.782Z,1.20
2023-05-21T15:01:16.997Z,1.10
2023-05-21T15:03:44.524Z,1.80
2023-05-21T15:06:12.747Z,1.50
2023-05-21T15:08:39.976Z,1.33
2023-05-21T15:11:10.244Z,1.33
2023-05-21T15:13:38.382Z,1.02
2023-05-21T15:16:06.971Z,1.02
2023-05-21T15:18:34.404Z,0.90
2023-05-21T15:21:01.803Z,1.10
2023-05-21T15:23:29.454Z,0.85
2023-05-21T15:25:57.021Z,0.90
2023-05-21T15:28:24.299Z,0.73
2023-05-21T15:30:51.760Z,0.90
2023-05-21T15:33:19.079Z,0.70
2023-05-21T15:35:46.589Z,0.70
2023-05-21T15:38:13.950Z,0.90
2023-05-21T15:40:42.770Z,0.80
2023-05-21T15:43:10.105Z,0.80
2023-05-21T15:45:38.434Z,0.90
2023-05-21T15:48:06.611Z,0.70
2023-05-21T15:50:36.017Z,0.90
2023-05-21T15:53:04.968Z,0.70
2023-05-21T15:55:33.834Z,0.80
2023-05-21T15:58:02.533Z,0.98
2023-05-21T16:00:30.228Z,0.80
2023-05-21T16:02:57.444Z,0.80
2023-05-21T16:05:24.916Z,1.00
2023-05-21T16:07:52.084Z,0.70
2023-05-21T16:10:19.392Z,1.08
2023-05-21T16:12:46.705Z,0.88
2023-05-21T16:15:14.096Z,1.52
2023-05-21T16:17:41.801Z,1.35
2023-05-21T16:20:09.739Z,0.90
2023-05-21T16:22:36.958Z,0.75
2023-05-21T16:25:04.774Z,0.70
2023-05-21T16:27:32.435Z,1.27
2023-05-21T16:30:00.119Z,1.10
2023-05-21T16:32:29.103Z,0.95
2023-05-21T16:34:56.852Z,0.80
2023-05-21T16:37:24.220Z,0.80
2023-05-21T16:39:51.584Z,0.88
2023-05-21T16:42:19.025Z,0.80
2023-05-21T16:44:46.592Z,0.85
2023-05-21T16:47:14.315Z,0.70
2023-05-21T16:49:41.846Z,0.90
2023-05-21T16:52:09.817Z,0.90
2023-05-21T16:54:37.190Z,0.90
2023-05-21T16:57:04.776Z,0.73
2023-05-21T16:59:32.114Z,1.00
2023-05-21T17:01:59.732Z,0.80
2023-05-21T17:04:27.252Z,0.90
2023-05-21T17:06:54.439Z,0.73
2023-05-21T17:09:21.811Z,0.60
2023-05-21T17:11:49.392Z,1.13
2023-05-21T17:14:32.561Z,1.25
2023-05-21T17:17:01.004Z,0.80
2023-05-21T17:19:28.601Z,0.95
2023-05-21T17:21:56.653Z,0.90
2023-05-21T17:24:24.147Z,0.95
2023-05-21T17:26:51.457Z,1.23
2023-05-21T17:29:19.331Z,1.10
2023-05-21T17:31:46.820Z,1.20
2023-05-21T17:34:14.106Z,1.20
2023-05-21T17:36:41.497Z,1.00
2023-05-21T17:39:08.936Z,0.82
2023-05-21T17:41:36.511Z,1.00
2023-05-21T17:44:03.974Z,0.90
2023-05-21T17:46:31.361Z,0.90
2023-05-21T17:48:58.715Z,0.85
2023-05-21T17:51:26.082Z,0.80
2023-05-21T17:53:53.785Z,0.77
2023-05-21T17:56:22.066Z,1.20
2023-05-21T17:58:50.700Z,1.00
2023-05-21T18:01:18.240Z,1.27
2023-05-21T18:03:45.657Z,1.42
2023-05-21T18:06:13.115Z,1.23
2023-05-21T18:08:40.660Z,1.10
2023-05-21T18:11:08.092Z,0.90
2023-05-21T18:13:35.214Z,0.82
2023-05-21T18:16:02.428Z,0.77
2023-05-21T18:18:29.654Z,0.90
2023-05-21T18:20:57.161Z,1.25
2023-05-21T18:23:24.693Z,0.75
2023-05-21T18:25:52.130Z,1.05
2023-05-21T18:28:19.367Z,1.00
2023-05-21T18:30:46.661Z,1.08
2023-05-21T18:33:15.697Z,0.88
2023-05-21T18:35:44.562Z,0.68
2023-05-21T18:38:12.265Z,0.93
2023-05-21T18:40:39.881Z,1.48
2023-05-21T18:43:07.357Z,0.82
2023-05-21T18:45:34.825Z,0.80
2023-05-21T18:48:03.452Z,1.20
2023-05-21T18:50:32.127Z,0.90
2023-05-21T18:52:59.329Z,0.80
2023-05-21T18:55:26.922Z,1.23
2023-05-21T18:57:55.993Z,0.70
2023-05-21T19:00:23.476Z,0.70
2023-05-21T19:02:50.784Z,0.70
2023-05-21T19:05:18.305Z,0.98
2023-05-21T19:07:45.559Z,0.73
2023-05-21T19:10:13.079Z,1.30
2023-05-21T19:12:42.434Z,0.85
2023-05-21T19:15:11.017Z,0.80
2023-05-21T19:17:40.221Z,0.63
2023-05-21T19:20:09.566Z,0.85
2023-05-21T19:22:37.628Z,0.80
2023-05-21T19:25:05.504Z,0.82
2023-05-21T19:27:32.703Z,1.00
2023-05-21T19:30:00.114Z,0.82
2023-05-21T19:32:27.433Z,1.02
2023-05-21T19:34:54.614Z,1.08
2023-05-21T19:37:21.968Z,1.00
2023-05-21T19:39:50.552Z,0.88
2023-05-21T19:42:20.357Z,1.13
2023-05-21T19:44:47.592Z,0.70
2023-05-21T19:47:15.139Z,0.80
2023-05-21T19:49:42.416Z,0.50
2023-05-21T19:52:10.826Z,0.73
2023-05-21T19:54:38.807Z,0.63
2023-05-21T19:57:06.437Z,0.70
2023-05-21T19:59:33.681Z,0.70
2023-05-21T20:02:01.028Z,0.80
2023-05-21T20:04:28.265Z,0.75
2023-05-21T20:06:56.395Z,0.60
2023-05-21T20:09:23.769Z,0.80
2023-05-21T20:11:51.074Z,0.57
2023-05-21T20:14:18.518Z,0.68
2023-05-21T20:16:47.438Z,0.50
2023-05-21T20:19:15.582Z,0.68
2023-05-21T20:21:43.027Z,1.05
2023-05-21T20:24:11.709Z,0.90
2023-05-21T20:26:40.437Z,0.82
2023-05-21T20:29:08.800Z,1.00
2023-05-21T20:31:36.426Z,0.90
2023-05-21T20:34:08.002Z,1.00
2023-05-21T20:36:36.518Z,0.80
2023-05-21T20:39:04.094Z,1.10
2023-05-21T20:41:37.998Z,0.70
2023-05-21T20:44:06.561Z,0.60
2023-05-21T20:46:38.994Z,0.80
2023-05-21T20:49:06.398Z,0.70
2023-05-21T20:51:34.249Z,0.70
2023-05-21T20:54:01.957Z,0.60
2023-05-21T20:59:02.563Z,0.80
2023-05-21T21:01:35.825Z,0.52
2023-05-21T21:04:03.318Z,0.80
2023-05-21T21:06:32.377Z,0.60
2023-05-21T21:09:02.965Z,0.70
2023-05-21T21:11:31.216Z,0.55
2023-05-21T21:13:58.531Z,0.85
2023-05-21T21:16:25.830Z,0.68
2023-05-21T21:18:53.200Z,0.60
2023-05-21T21:21:20.600Z,0.50
2023-05-21T21:23:47.844Z,0.70
2023-05-21T21:26:14.964Z,0.70
2023-05-21T21:28:42.180Z,0.75
2023-05-21T21:31:09.462Z,0.85
2023-05-21T21:33:37.108Z,0.60
2023-05-21T21:36:05.013Z,0.80
2023-05-21T21:38:32.269Z,1.02
2023-05-21T21:40:59.581Z,0.60
2023-05-21T21:43:27.133Z,0.60
2023-05-21T21:45:55.365Z,0.57
2023-05-21T21:48:22.724Z,0.80
2023-05-21T21:50:51.511Z,0.65
2023-05-21T21:53:18.859Z,0.80
2023-05-21T21:55:46.227Z,0.73
2023-05-21T21:58:13.455Z,0.60
2023-05-21T22:00:41.327Z,0.70
2023-05-21T22:03:08.941Z,0.77
2023-05-21T22:05:36.033Z,0.68
2023-05-21T22:08:04.696Z,0.60
2023-05-21T22:10:33.861Z,0.70
2023-05-21T22:13:02.937Z,0.80
2023-05-21T22:15:31.270Z,0.65
2023-05-21T22:17:59.382Z,0.70
2023-05-21T22:20:29.754Z,0.90
2023-05-21T22:22:57.605Z,0.60
2023-05-21T22:25:24.701Z,0.88
2023-05-21T22:27:52.588Z,0.50
2023-05-21T22:30:20.472Z,0.70
2023-05-21T22:32:48.196Z,0.60
2023-05-21T22:35:15.436Z,0.57
2023-05-21T22:37:42.558Z,0.50
2023-05-21T22:40:10.676Z,0.80
2023-05-21T22:42:38.814Z,0.52
2023-05-21T22:45:07.043Z,0.77
2023-05-21T22:47:37.286Z,0.70
2023-05-21T22:50:04.955Z,0.80
2023-05-21T22:52:32.498Z,0.60
2023-05-21T22:55:01.168Z,1.52
2023-05-21T22:57:28.410Z,0.85
2023-05-21T22:59:55.499Z,0.60
2023-05-21T23:02:22.741Z,0.60
2023-05-21T23:04:49.960Z,0.60
2023-05-21T23:07:17.497Z,0.50
2023-05-21T23:09:45.084Z,0.60
2023-05-21T23:12:12.929Z,0.70
2023-05-21T23:14:40.078Z,0.60
2023-05-21T23:17:07.876Z,0.70
2023-05-21T23:19:35.265Z,0.75
2023-05-21T23:22:03.250Z,0.50
2023-05-21T23:24:30.424Z,1.15
2023-05-21T23:27:02.261Z,0.63
2023-05-21T23:29:31.584Z,0.60
2023-05-21T23:31:59.226Z,0.80
2023-05-21T23:34:26.369Z,0.60
2023-05-21T23:36:53.473Z,0.75
2023-05-21T23:39:21.308Z,0.57
2023-05-21T23:41:48.847Z,0.65
2023-05-21T23:44:16.520Z,0.80
2023-05-21T23:46:43.958Z,0.50
2023-05-21T23:49:11.857Z,0.90
2023-05-21T23:51:39.949Z,0.73
2023-05-21T23:54:08.371Z,0.73
2023-05-21T23:56:35.553Z,1.17
2023-05-21T23:59:02.670Z,0.80
